sensor_id;sensor_type;location;lat;lon;timestamp;P1;durP1;ratioP1;P2;durP2;ratioP2
23449;SDS011;11897;45.438;12.128;2023-04-25T00:00:00;3.70;;;1.83;;
23449;SDS011;11897;45.438;12.128;2023-04-25T00:02:37;2.40;;;1.83;;
23449;SDS011;11897;45.438;12.128;2023-04-25T00:05:04;3.57;;;1.90;;
23449;SDS011;11897;45.438;12.128;2023-04-25T00:07:33;5.60;;;2.97;;
23449;SDS011;11897;45.438;12.128;2023-04-25T00:10:00;4.43;;;1.87;;
23449;SDS011;11897;45.438;12.128;2023-04-25T00:12:27;3.27;;;1.77;;
23449;SDS011;11897;45.438;12.128;2023-04-25T00:14:54;2.90;;;1.93;;
23449;SDS011;11897;45.438;12.128;2023-04-25T00:17:22;4.63;;;2.00;;
23449;SDS011;11897;45.438;12.128;2023-04-25T00:19:49;3.60;;;1.80;;
23449;SDS011;11897;45.438;12.128;2023-04-25T00:22:16;2.97;;;1.70;;
23449;SDS011;11897;45.438;12.128;2023-04-25T00:24:44;2.97;;;1.90;;
23449;SDS011;11897;45.438;12.128;2023-04-25T00:27:10;2.90;;;1.90;;
23449;SDS011;11897;45.438;12.128;2023-04-25T00:29:37;3.90;;;1.80;;
23449;SDS011;11897;45.438;12.128;2023-04-25T00:32:04;2.77;;;1.80;;
23449;SDS011;11897;45.438;12.128;2023-04-25T00:34:30;3.17;;;2.37;;
23449;SDS011;11897;45.438;12.128;2023-04-25T00:36:57;2.77;;;1.80;;
23449;SDS011;11897;45.438;12.128;2023-04-25T00:39:27;3.80;;;2.13;;
23449;SDS011;11897;45.438;12.128;2023-04-25T00:41:58;4.07;;;1.50;;
23449;SDS011;11897;45.438;12.128;2023-04-25T00:44:25;4.10;;;1.50;;
23449;SDS011;11897;45.438;12.128;2023-04-25T00:46:52;4.03;;;1.83;;
23449;SDS011;11897;45.438;12.128;2023-04-25T00:49:20;2.03;;;1.47;;
23449;SDS011;11897;45.438;12.128;2023-04-25T00:51:46;2.80;;;2.10;;
23449;SDS011;11897;45.438;12.128;2023-04-25T00:54:13;4.57;;;1.67;;
23449;SDS011;11897;45.438;12.128;2023-04-25T00:56:40;2.50;;;1.83;;
23449;SDS011;11897;45.438;12.128;2023-04-25T00:59:09;2.83;;;1.83;;
23449;SDS011;11897;45.438;12.128;2023-04-25T01:01:38;2.00;;;1.47;;
23449;SDS011;11897;45.438;12.128;2023-04-25T01:04:05;6.20;;;2.07;;
23449;SDS011;11897;45.438;12.128;2023-04-25T01:06:32;1.87;;;1.53;;
23449;SDS011;11897;45.438;12.128;2023-04-25T01:08:59;4.47;;;1.83;;
23449;SDS011;11897;45.438;12.128;2023-04-25T01:11:25;3.50;;;1.80;;
23449;SDS011;11897;45.438;12.128;2023-04-25T01:13:52;3.17;;;2.37;;
23449;SDS011;11897;45.438;12.128;2023-04-25T01:16:20;3.27;;;1.90;;
23449;SDS011;11897;45.438;12.128;2023-04-25T01:18:49;2.77;;;2.03;;
23449;SDS011;11897;45.438;12.128;2023-04-25T01:21:17;3.87;;;2.37;;
23449;SDS011;11897;45.438;12.128;2023-04-25T01:23:46;2.47;;;1.67;;
23449;SDS011;11897;45.438;12.128;2023-04-25T01:26:13;2.50;;;2.17;;
23449;SDS011;11897;45.438;12.128;2023-04-25T01:28:40;2.07;;;1.60;;
23449;SDS011;11897;45.438;12.128;2023-04-25T01:31:07;5.37;;;2.60;;
23449;SDS011;11897;45.438;12.128;2023-04-25T01:33:35;2.03;;;1.63;;
23449;SDS011;11897;45.438;12.128;2023-04-25T01:36:01;2.40;;;1.77;;
23449;SDS011;11897;45.438;12.128;2023-04-25T01:38:29;5.23;;;2.20;;
23449;SDS011;11897;45.438;12.128;2023-04-25T01:40:56;2.37;;;1.80;;
23449;SDS011;11897;45.438;12.128;2023-04-25T01:43:23;2.90;;;1.97;;
23449;SDS011;11897;45.438;12.128;2023-04-25T01:45:49;2.40;;;1.80;;
23449;SDS011;11897;45.438;12.128;2023-04-25T01:48:17;2.53;;;2.17;;
23449;SDS011;11897;45.438;12.128;2023-04-25T01:50:45;3.90;;;1.93;;
23449;SDS011;11897;45.438;12.128;2023-04-25T01:53:12;3.67;;;2.10;;
23449;SDS011;11897;45.438;12.128;2023-04-25T01:55:43;2.60;;;1.87;;
23449;SDS011;11897;45.438;12.128;2023-04-25T01:58:13;3.33;;;1.97;;
23449;SDS011;11897;45.438;12.128;2023-04-25T02:01:02;5.00;;;2.00;;
23449;SDS011;11897;45.438;12.128;2023-04-25T02:03:35;2.60;;;1.87;;
23449;SDS011;11897;45.438;12.128;2023-04-25T02:06:05;3.87;;;1.93;;
23449;SDS011;11897;45.438;12.128;2023-04-25T02:08:36;3.53;;;1.83;;
23449;SDS011;11897;45.438;12.128;2023-04-25T02:11:04;3.33;;;1.63;;
23449;SDS011;11897;45.438;12.128;2023-04-25T02:13:38;2.47;;;1.70;;
23449;SDS011;11897;45.438;12.128;2023-04-25T02:16:23;2.40;;;1.90;;
23449;SDS011;11897;45.438;12.128;2023-04-25T02:18:50;1.93;;;1.77;;
23449;SDS011;11897;45.438;12.128;2023-04-25T02:21:18;2.60;;;1.63;;
23449;SDS011;11897;45.438;12.128;2023-04-25T02:23:45;1.80;;;1.10;;
23449;SDS011;11897;45.438;12.128;2023-04-25T02:26:15;1.90;;;1.40;;
23449;SDS011;11897;45.438;12.128;2023-04-25T02:28:42;2.03;;;1.47;;
23449;SDS011;11897;45.438;12.128;2023-04-25T02:31:12;2.13;;;1.27;;
23449;SDS011;11897;45.438;12.128;2023-04-25T02:33:38;2.93;;;1.33;;
23449;SDS011;11897;45.438;12.128;2023-04-25T02:36:05;1.77;;;1.40;;
23449;SDS011;11897;45.438;12.128;2023-04-25T02:38:32;3.83;;;1.83;;
23449;SDS011;11897;45.438;12.128;2023-04-25T02:40:59;8.07;;;1.57;;
23449;SDS011;11897;45.438;12.128;2023-04-25T02:43:27;3.07;;;1.30;;
23449;SDS011;11897;45.438;12.128;2023-04-25T02:45:53;3.23;;;1.57;;
23449;SDS011;11897;45.438;12.128;2023-04-25T02:48:20;2.33;;;1.50;;
23449;SDS011;11897;45.438;12.128;2023-04-25T02:50:47;2.23;;;1.60;;
23449;SDS011;11897;45.438;12.128;2023-04-25T02:53:14;2.50;;;1.83;;
23449;SDS011;11897;45.438;12.128;2023-04-25T02:55:46;2.87;;;1.60;;
23449;SDS011;11897;45.438;12.128;2023-04-25T02:58:13;7.97;;;1.50;;
23449;SDS011;11897;45.438;12.128;2023-04-25T03:00:47;2.57;;;1.87;;
23449;SDS011;11897;45.438;12.128;2023-04-25T03:03:15;2.77;;;1.80;;
23449;SDS011;11897;45.438;12.128;2023-04-25T03:05:43;2.30;;;1.80;;
23449;SDS011;11897;45.438;12.128;2023-04-25T03:08:12;2.23;;;1.63;;
23449;SDS011;11897;45.438;12.128;2023-04-25T03:10:39;1.80;;;1.50;;
23449;SDS011;11897;45.438;12.128;2023-04-25T03:13:08;1.60;;;1.40;;
23449;SDS011;11897;45.438;12.128;2023-04-25T03:15:40;2.47;;;1.60;;
23449;SDS011;11897;45.438;12.128;2023-04-25T03:18:11;3.23;;;1.90;;
23449;SDS011;11897;45.438;12.128;2023-04-25T03:20:38;2.97;;;2.30;;
23449;SDS011;11897;45.438;12.128;2023-04-25T03:23:08;3.20;;;2.03;;
23449;SDS011;11897;45.438;12.128;2023-04-25T03:25:40;3.60;;;2.10;;
23449;SDS011;11897;45.438;12.128;2023-04-25T03:28:07;6.93;;;3.00;;
23449;SDS011;11897;45.438;12.128;2023-04-25T03:30:35;2.73;;;1.67;;
23449;SDS011;11897;45.438;12.128;2023-04-25T03:33:02;3.37;;;2.20;;
23449;SDS011;11897;45.438;12.128;2023-04-25T03:35:30;3.03;;;1.77;;
23449;SDS011;11897;45.438;12.128;2023-04-25T03:37:57;3.17;;;1.80;;
23449;SDS011;11897;45.438;12.128;2023-04-25T03:40:28;2.23;;;1.63;;
23449;SDS011;11897;45.438;12.128;2023-04-25T03:43:14;2.87;;;2.10;;
23449;SDS011;11897;45.438;12.128;2023-04-25T03:45:49;4.30;;;1.83;;
23449;SDS011;11897;45.438;12.128;2023-04-25T03:48:19;5.30;;;2.10;;
23449;SDS011;11897;45.438;12.128;2023-04-25T03:50:48;3.47;;;2.27;;
23449;SDS011;11897;45.438;12.128;2023-04-25T03:53:16;3.90;;;1.30;;
23449;SDS011;11897;45.438;12.128;2023-04-25T03:56:08;4.27;;;1.43;;
23449;SDS011;11897;45.438;12.128;2023-04-25T03:58:37;2.63;;;1.57;;
23449;SDS011;11897;45.438;12.128;2023-04-25T04:01:06;3.60;;;1.87;;
23449;SDS011;11897;45.438;12.128;2023-04-25T04:03:38;13.33;;;1.70;;
23449;SDS011;11897;45.438;12.128;2023-04-25T04:06:07;2.17;;;1.33;;
23449;SDS011;11897;45.438;12.128;2023-04-25T04:08:39;2.30;;;1.57;;
23449;SDS011;11897;45.438;12.128;2023-04-25T04:11:06;1.63;;;1.10;;
23449;SDS011;11897;45.438;12.128;2023-04-25T04:13:32;4.30;;;1.03;;
23449;SDS011;11897;45.438;12.128;2023-04-25T04:16:00;2.60;;;1.33;;
23449;SDS011;11897;45.438;12.128;2023-04-25T04:18:28;2.83;;;1.83;;
23449;SDS011;11897;45.438;12.128;2023-04-25T04:20:56;7.23;;;1.90;;
23449;SDS011;11897;45.438;12.128;2023-04-25T04:23:25;2.80;;;1.57;;
23449;SDS011;11897;45.438;12.128;2023-04-25T04:25:55;3.80;;;2.03;;
23449;SDS011;11897;45.438;12.128;2023-04-25T04:28:40;1.87;;;1.47;;
23449;SDS011;11897;45.438;12.128;2023-04-25T04:31:21;3.40;;;2.20;;
23449;SDS011;11897;45.438;12.128;2023-04-25T04:33:49;2.37;;;1.67;;
23449;SDS011;11897;45.438;12.128;2023-04-25T04:36:17;2.47;;;1.50;;
23449;SDS011;11897;45.438;12.128;2023-04-25T04:38:49;2.90;;;1.70;;
23449;SDS011;11897;45.438;12.128;2023-04-25T04:41:32;8.50;;;2.40;;
23449;SDS011;11897;45.438;12.128;2023-04-25T04:44:11;1.93;;;1.70;;
23449;SDS011;11897;45.438;12.128;2023-04-25T04:46:50;2.97;;;1.77;;
23449;SDS011;11897;45.438;12.128;2023-04-25T04:49:33;3.53;;;2.07;;
23449;SDS011;11897;45.438;12.128;2023-04-25T04:52:18;2.77;;;1.90;;
23449;SDS011;11897;45.438;12.128;2023-04-25T04:54:53;3.60;;;1.90;;
23449;SDS011;11897;45.438;12.128;2023-04-25T04:57:40;2.63;;;1.77;;
23449;SDS011;11897;45.438;12.128;2023-04-25T05:00:39;5.47;;;2.03;;
23449;SDS011;11897;45.438;12.128;2023-04-25T05:03:24;2.60;;;1.97;;
23449;SDS011;11897;45.438;12.128;2023-04-25T05:06:01;3.40;;;1.57;;
23449;SDS011;11897;45.438;12.128;2023-04-25T05:09:06;3.57;;;2.10;;
23449;SDS011;11897;45.438;12.128;2023-04-25T05:11:46;3.87;;;2.17;;
23449;SDS011;11897;45.438;12.128;2023-04-25T05:14:31;3.23;;;2.10;;
23449;SDS011;11897;45.438;12.128;2023-04-25T05:17:07;10.17;;;2.20;;
23449;SDS011;11897;45.438;12.128;2023-04-25T05:19:40;2.80;;;1.87;;
23449;SDS011;11897;45.438;12.128;2023-04-25T05:22:31;3.37;;;1.77;;
23449;SDS011;11897;45.438;12.128;2023-04-25T05:25:15;3.73;;;2.40;;
23449;SDS011;11897;45.438;12.128;2023-04-25T05:28:06;3.40;;;2.03;;
23449;SDS011;11897;45.438;12.128;2023-04-25T05:30:38;2.47;;;1.63;;
23449;SDS011;11897;45.438;12.128;2023-04-25T05:33:10;2.20;;;1.83;;
23449;SDS011;11897;45.438;12.128;2023-04-25T05:35:42;5.10;;;2.10;;
23449;SDS011;11897;45.438;12.128;2023-04-25T05:38:10;3.60;;;2.03;;
23449;SDS011;11897;45.438;12.128;2023-04-25T05:40:55;4.03;;;2.27;;
23449;SDS011;11897;45.438;12.128;2023-04-25T05:43:52;2.80;;;1.83;;
23449;SDS011;11897;45.438;12.128;2023-04-25T05:46:23;3.00;;;1.53;;
23449;SDS011;11897;45.438;12.128;2023-04-25T05:49:08;1.90;;;1.43;;
23449;SDS011;11897;45.438;12.128;2023-04-25T05:52:01;2.00;;;1.33;;
23449;SDS011;11897;45.438;12.128;2023-04-25T05:54:50;2.37;;;1.50;;
23449;SDS011;11897;45.438;12.128;2023-04-25T05:57:20;2.63;;;1.73;;
23449;SDS011;11897;45.438;12.128;2023-04-25T05:59:49;2.33;;;1.43;;
23449;SDS011;11897;45.438;12.128;2023-04-25T06:02:18;2.37;;;1.50;;
23449;SDS011;11897;45.438;12.128;2023-04-25T06:04:49;3.37;;;1.50;;
23449;SDS011;11897;45.438;12.128;2023-04-25T06:07:16;2.57;;;1.33;;
23449;SDS011;11897;45.438;12.128;2023-04-25T06:09:43;3.30;;;1.40;;
23449;SDS011;11897;45.438;12.128;2023-04-25T06:12:10;2.13;;;1.40;;
23449;SDS011;11897;45.438;12.128;2023-04-25T06:14:38;2.73;;;1.70;;
23449;SDS011;11897;45.438;12.128;2023-04-25T06:17:06;3.87;;;1.80;;
23449;SDS011;11897;45.438;12.128;2023-04-25T06:19:34;2.63;;;1.47;;
23449;SDS011;11897;45.438;12.128;2023-04-25T06:22:01;2.73;;;1.60;;
23449;SDS011;11897;45.438;12.128;2023-04-25T06:24:31;1.87;;;1.00;;
23449;SDS011;11897;45.438;12.128;2023-04-25T06:26:57;3.20;;;1.97;;
23449;SDS011;11897;45.438;12.128;2023-04-25T06:29:24;3.00;;;1.80;;
23449;SDS011;11897;45.438;12.128;2023-04-25T06:31:51;2.60;;;1.73;;
23449;SDS011;11897;45.438;12.128;2023-04-25T06:34:21;2.50;;;1.60;;
23449;SDS011;11897;45.438;12.128;2023-04-25T06:36:49;2.83;;;1.43;;
23449;SDS011;11897;45.438;12.128;2023-04-25T06:39:16;5.93;;;1.40;;
23449;SDS011;11897;45.438;12.128;2023-04-25T06:41:45;2.10;;;1.40;;
23449;SDS011;11897;45.438;12.128;2023-04-25T06:44:31;3.60;;;1.70;;
23449;SDS011;11897;45.438;12.128;2023-04-25T06:46:58;3.80;;;1.60;;
23449;SDS011;11897;45.438;12.128;2023-04-25T06:49:26;1.70;;;1.40;;
23449;SDS011;11897;45.438;12.128;2023-04-25T06:51:53;1.80;;;1.40;;
23449;SDS011;11897;45.438;12.128;2023-04-25T06:54:19;2.63;;;1.33;;
23449;SDS011;11897;45.438;12.128;2023-04-25T06:56:55;3.77;;;1.50;;
23449;SDS011;11897;45.438;12.128;2023-04-25T06:59:22;2.53;;;1.47;;
23449;SDS011;11897;45.438;12.128;2023-04-25T07:01:50;2.13;;;1.17;;
23449;SDS011;11897;45.438;12.128;2023-04-25T07:04:20;2.00;;;1.30;;
23449;SDS011;11897;45.438;12.128;2023-04-25T07:06:55;1.97;;;1.10;;
23449;SDS011;11897;45.438;12.128;2023-04-25T07:09:38;6.23;;;1.73;;
23449;SDS011;11897;45.438;12.128;2023-04-25T07:12:04;1.80;;;1.03;;
23449;SDS011;11897;45.438;12.128;2023-04-25T07:14:32;2.30;;;0.90;;
23449;SDS011;11897;45.438;12.128;2023-04-25T07:17:00;1.00;;;0.70;;
23449;SDS011;11897;45.438;12.128;2023-04-25T07:19:28;0.80;;;0.47;;
23449;SDS011;11897;45.438;12.128;2023-04-25T07:21:59;0.87;;;0.53;;
23449;SDS011;11897;45.438;12.128;2023-04-25T07:24:26;0.97;;;0.73;;
23449;SDS011;11897;45.438;12.128;2023-04-25T07:26:54;0.43;;;0.43;;
23449;SDS011;11897;45.438;12.128;2023-04-25T07:29:28;1.77;;;0.60;;
23449;SDS011;11897;45.438;12.128;2023-04-25T07:31:58;0.77;;;0.63;;
23449;SDS011;11897;45.438;12.128;2023-04-25T07:34:24;2.87;;;0.73;;
23449;SDS011;11897;45.438;12.128;2023-04-25T07:36:51;1.20;;;0.67;;
23449;SDS011;11897;45.438;12.128;2023-04-25T07:39:21;1.53;;;0.60;;
23449;SDS011;11897;45.438;12.128;2023-04-25T07:41:48;2.77;;;0.90;;
23449;SDS011;11897;45.438;12.128;2023-04-25T07:44:21;2.43;;;0.90;;
23449;SDS011;11897;45.438;12.128;2023-04-25T07:46:48;1.20;;;1.00;;
23449;SDS011;11897;45.438;12.128;2023-04-25T07:49:15;1.50;;;1.10;;
23449;SDS011;11897;45.438;12.128;2023-04-25T07:51:43;2.07;;;1.37;;
23449;SDS011;11897;45.438;12.128;2023-04-25T07:54:13;1.87;;;1.10;;
23449;SDS011;11897;45.438;12.128;2023-04-25T07:56:46;4.00;;;1.03;;
23449;SDS011;11897;45.438;12.128;2023-04-25T07:59:13;2.63;;;0.90;;
23449;SDS011;11897;45.438;12.128;2023-04-25T08:01:43;4.83;;;1.67;;
23449;SDS011;11897;45.438;12.128;2023-04-25T08:04:10;1.77;;;1.00;;
23449;SDS011;11897;45.438;12.128;2023-04-25T08:06:56;3.73;;;1.30;;
23449;SDS011;11897;45.438;12.128;2023-04-25T08:09:27;2.17;;;1.50;;
23449;SDS011;11897;45.438;12.128;2023-04-25T08:11:57;3.90;;;1.40;;
23449;SDS011;11897;45.438;12.128;2023-04-25T08:14:29;3.73;;;2.20;;
23449;SDS011;11897;45.438;12.128;2023-04-25T08:17:01;3.47;;;2.30;;
23449;SDS011;11897;45.438;12.128;2023-04-25T08:19:31;3.73;;;2.53;;
23449;SDS011;11897;45.438;12.128;2023-04-25T08:21:58;5.47;;;2.47;;
23449;SDS011;11897;45.438;12.128;2023-04-25T08:24:33;6.63;;;3.00;;
23449;SDS011;11897;45.438;12.128;2023-04-25T08:27:03;3.13;;;2.83;;
23449;SDS011;11897;45.438;12.128;2023-04-25T08:29:30;3.93;;;2.70;;
23449;SDS011;11897;45.438;12.128;2023-04-25T08:31:57;4.73;;;3.13;;
23449;SDS011;11897;45.438;12.128;2023-04-25T08:34:24;9.37;;;3.47;;
23449;SDS011;11897;45.438;12.128;2023-04-25T08:36:52;4.30;;;2.87;;
23449;SDS011;11897;45.438;12.128;2023-04-25T08:39:28;4.27;;;3.07;;
23449;SDS011;11897;45.438;12.128;2023-04-25T08:42:19;5.77;;;2.83;;
23449;SDS011;11897;45.438;12.128;2023-04-25T08:44:48;3.93;;;2.57;;
23449;SDS011;11897;45.438;12.128;2023-04-25T08:47:15;6.40;;;3.43;;
23449;SDS011;11897;45.438;12.128;2023-04-25T08:49:50;4.93;;;2.93;;
23449;SDS011;11897;45.438;12.128;2023-04-25T08:52:19;3.57;;;2.80;;
23449;SDS011;11897;45.438;12.128;2023-04-25T08:54:48;3.43;;;2.80;;
23449;SDS011;11897;45.438;12.128;2023-04-25T08:57:15;4.87;;;3.13;;
23449;SDS011;11897;45.438;12.128;2023-04-25T08:59:46;4.43;;;2.27;;
23449;SDS011;11897;45.438;12.128;2023-04-25T09:02:14;6.40;;;3.03;;
23449;SDS011;11897;45.438;12.128;2023-04-25T09:04:45;4.97;;;3.20;;
23449;SDS011;11897;45.438;12.128;2023-04-25T09:07:12;6.07;;;3.43;;
23449;SDS011;11897;45.438;12.128;2023-04-25T09:09:41;8.60;;;3.40;;
23449;SDS011;11897;45.438;12.128;2023-04-25T09:12:08;6.63;;;3.67;;
23449;SDS011;11897;45.438;12.128;2023-04-25T09:14:35;5.70;;;3.43;;
23449;SDS011;11897;45.438;12.128;2023-04-25T09:17:13;6.77;;;2.83;;
23449;SDS011;11897;45.438;12.128;2023-04-25T09:19:48;7.20;;;3.43;;
23449;SDS011;11897;45.438;12.128;2023-04-25T09:22:24;4.37;;;2.83;;
23449;SDS011;11897;45.438;12.128;2023-04-25T09:24:52;6.77;;;3.57;;
23449;SDS011;11897;45.438;12.128;2023-04-25T09:27:21;5.27;;;3.30;;
23449;SDS011;11897;45.438;12.128;2023-04-25T09:29:57;4.30;;;2.53;;
23449;SDS011;11897;45.438;12.128;2023-04-25T09:32:29;4.47;;;3.13;;
23449;SDS011;11897;45.438;12.128;2023-04-25T09:34:57;4.93;;;3.27;;
23449;SDS011;11897;45.438;12.128;2023-04-25T09:37:26;5.83;;;2.63;;
23449;SDS011;11897;45.438;12.128;2023-04-25T09:40:12;4.17;;;2.50;;
23449;SDS011;11897;45.438;12.128;2023-04-25T09:42:50;1.10;;;0.97;;
23449;SDS011;11897;45.438;12.128;2023-04-25T09:45:18;3.33;;;1.10;;
23449;SDS011;11897;45.438;12.128;2023-04-25T09:47:47;2.77;;;1.67;;
23449;SDS011;11897;45.438;12.128;2023-04-25T09:50:22;1.80;;;1.20;;
23449;SDS011;11897;45.438;12.128;2023-04-25T09:53:03;1.97;;;1.40;;
23449;SDS011;11897;45.438;12.128;2023-04-25T09:55:52;2.90;;;1.23;;
23449;SDS011;11897;45.438;12.128;2023-04-25T09:58:19;1.27;;;1.00;;
23449;SDS011;11897;45.438;12.128;2023-04-25T10:00:46;1.50;;;0.90;;
23449;SDS011;11897;45.438;12.128;2023-04-25T10:03:27;1.00;;;0.80;;
23449;SDS011;11897;45.438;12.128;2023-04-25T10:06:16;1.00;;;0.67;;
23449;SDS011;11897;45.438;12.128;2023-04-25T10:08:44;1.60;;;1.10;;
23449;SDS011;11897;45.438;12.128;2023-04-25T10:11:13;0.80;;;0.80;;
23449;SDS011;11897;45.438;12.128;2023-04-25T10:13:41;1.07;;;0.90;;
23449;SDS011;11897;45.438;12.128;2023-04-25T10:16:08;1.50;;;0.50;;
23449;SDS011;11897;45.438;12.128;2023-04-25T10:18:36;0.10;;;0.10;;
23449;SDS011;11897;45.438;12.128;2023-04-25T10:21:04;0.20;;;0.20;;
23449;SDS011;11897;45.438;12.128;2023-04-25T10:23:31;0.33;;;0.20;;
23449;SDS011;11897;45.438;12.128;2023-04-25T10:25:59;0.53;;;0.50;;
23449;SDS011;11897;45.438;12.128;2023-04-25T10:28:27;0.23;;;0.23;;
23449;SDS011;11897;45.438;12.128;2023-04-25T10:30:58;1.13;;;0.30;;
23449;SDS011;11897;45.438;12.128;2023-04-25T10:33:35;0.50;;;0.30;;
23449;SDS011;11897;45.438;12.128;2023-04-25T10:36:18;0.50;;;0.30;;
23449;SDS011;11897;45.438;12.128;2023-04-25T10:38:47;0.23;;;0.20;;
23449;SDS011;11897;45.438;12.128;2023-04-25T10:41:15;0.10;;;0.10;;
23449;SDS011;11897;45.438;12.128;2023-04-25T10:43:45;0.40;;;0.27;;
23449;SDS011;11897;45.438;12.128;2023-04-25T10:46:15;0.10;;;0.10;;
23449;SDS011;11897;45.438;12.128;2023-04-25T10:48:49;1.00;;;0.40;;
23449;SDS011;11897;45.438;12.128;2023-04-25T10:51:31;0.37;;;0.37;;
23449;SDS011;11897;45.438;12.128;2023-04-25T10:54:02;0.77;;;0.40;;
23449;SDS011;11897;45.438;12.128;2023-04-25T10:56:29;2.40;;;0.60;;
23449;SDS011;11897;45.438;12.128;2023-04-25T10:59:06;6.03;;;0.60;;
23449;SDS011;11897;45.438;12.128;2023-04-25T11:01:37;0.43;;;0.23;;
23449;SDS011;11897;45.438;12.128;2023-04-25T11:04:04;1.30;;;0.30;;
23449;SDS011;11897;45.438;12.128;2023-04-25T11:06:46;1.80;;;0.50;;
23449;SDS011;11897;45.438;12.128;2023-04-25T11:09:17;1.90;;;0.57;;
23449;SDS011;11897;45.438;12.128;2023-04-25T11:11:53;0.40;;;0.30;;
23449;SDS011;11897;45.438;12.128;2023-04-25T11:14:20;1.83;;;0.20;;
23449;SDS011;11897;45.438;12.128;2023-04-25T11:16:47;0.20;;;0.20;;
23449;SDS011;11897;45.438;12.128;2023-04-25T11:19:13;2.37;;;0.43;;
23449;SDS011;11897;45.438;12.128;2023-04-25T11:21:42;0.13;;;0.13;;
23449;SDS011;11897;45.438;12.128;2023-04-25T11:24:10;0.27;;;0.20;;
23449;SDS011;11897;45.438;12.128;2023-04-25T11:26:37;0.47;;;0.20;;
23449;SDS011;11897;45.438;12.128;2023-04-25T11:29:05;0.13;;;0.10;;
23449;SDS011;11897;45.438;12.128;2023-04-25T11:31:32;1.23;;;0.60;;
23449;SDS011;11897;45.438;12.128;2023-04-25T11:33:59;2.53;;;0.37;;
23449;SDS011;11897;45.438;12.128;2023-04-25T11:36:26;0.03;;;0.03;;
23449;SDS011;11897;45.438;12.128;2023-04-25T11:38:54;0.37;;;0.10;;
23449;SDS011;11897;45.438;12.128;2023-04-25T11:41:21;0.63;;;0.30;;
23449;SDS011;11897;45.438;12.128;2023-04-25T11:43:48;0.57;;;0.30;;
23449;SDS011;11897;45.438;12.128;2023-04-25T11:46:16;0.13;;;0.13;;
23449;SDS011;11897;45.438;12.128;2023-04-25T11:48:45;1.03;;;0.20;;
23449;SDS011;11897;45.438;12.128;2023-04-25T11:51:13;0.27;;;0.20;;
23449;SDS011;11897;45.438;12.128;2023-04-25T11:53:41;1.17;;;0.30;;
23449;SDS011;11897;45.438;12.128;2023-04-25T11:56:10;0.23;;;0.23;;
23449;SDS011;11897;45.438;12.128;2023-04-25T12:01:24;0.10;;;0.10;;
23449;SDS011;11897;45.438;12.128;2023-04-25T12:03:51;2.47;;;0.40;;
23449;SDS011;11897;45.438;12.128;2023-04-25T12:06:18;1.10;;;0.17;;
23449;SDS011;11897;45.438;12.128;2023-04-25T12:08:58;0.50;;;0.30;;
23449;SDS011;11897;45.438;12.128;2023-04-25T12:11:26;0.30;;;0.30;;
23449;SDS011;11897;45.438;12.128;2023-04-25T12:13:53;0.40;;;0.40;;
23449;SDS011;11897;45.438;12.128;2023-04-25T12:16:20;0.20;;;0.20;;
23449;SDS011;11897;45.438;12.128;2023-04-25T12:18:47;0.30;;;0.30;;
23449;SDS011;11897;45.438;12.128;2023-04-25T12:21:14;1.77;;;0.20;;
23449;SDS011;11897;45.438;12.128;2023-04-25T12:23:40;0.30;;;0.30;;
23449;SDS011;11897;45.438;12.128;2023-04-25T12:26:07;0.50;;;0.30;;
23449;SDS011;11897;45.438;12.128;2023-04-25T12:28:35;0.27;;;0.27;;
23449;SDS011;11897;45.438;12.128;2023-04-25T12:31:02;0.23;;;0.20;;
23449;SDS011;11897;45.438;12.128;2023-04-25T12:33:30;0.53;;;0.20;;
23449;SDS011;11897;45.438;12.128;2023-04-25T12:35:57;0.43;;;0.23;;
23449;SDS011;11897;45.438;12.128;2023-04-25T12:38:25;0.80;;;0.40;;
23449;SDS011;11897;45.438;12.128;2023-04-25T12:40:52;0.10;;;0.10;;
23449;SDS011;11897;45.438;12.128;2023-04-25T12:43:19;0.20;;;0.20;;
23449;SDS011;11897;45.438;12.128;2023-04-25T12:45:48;0.20;;;0.20;;
23449;SDS011;11897;45.438;12.128;2023-04-25T12:48:16;0.87;;;0.37;;
23449;SDS011;11897;45.438;12.128;2023-04-25T12:50:42;1.60;;;0.30;;
23449;SDS011;11897;45.438;12.128;2023-04-25T12:53:09;0.30;;;0.30;;
23449;SDS011;11897;45.438;12.128;2023-04-25T12:55:37;0.20;;;0.20;;
23449;SDS011;11897;45.438;12.128;2023-04-25T12:58:03;2.43;;;0.30;;
23449;SDS011;11897;45.438;12.128;2023-04-25T13:00:30;1.03;;;0.47;;
23449;SDS011;11897;45.438;12.128;2023-04-25T13:02:58;0.10;;;0.10;;
23449;SDS011;11897;45.438;12.128;2023-04-25T13:05:25;0.30;;;0.20;;
23449;SDS011;11897;45.438;12.128;2023-04-25T13:07:52;0.10;;;0.10;;
23449;SDS011;11897;45.438;12.128;2023-04-25T13:10:18;0.67;;;0.20;;
23449;SDS011;11897;45.438;12.128;2023-04-25T13:12:45;0.70;;;0.37;;
23449;SDS011;11897;45.438;12.128;2023-04-25T13:15:12;0.20;;;0.20;;
23449;SDS011;11897;45.438;12.128;2023-04-25T13:17:40;0.17;;;0.17;;
23449;SDS011;11897;45.438;12.128;2023-04-25T13:20:09;0.40;;;0.20;;
23449;SDS011;11897;45.438;12.128;2023-04-25T13:22:37;0.87;;;0.50;;
23449;SDS011;11897;45.438;12.128;2023-04-25T13:25:04;0.20;;;0.20;;
23449;SDS011;11897;45.438;12.128;2023-04-25T13:27:31;0.90;;;0.27;;
23449;SDS011;11897;45.438;12.128;2023-04-25T13:29:59;0.17;;;0.17;;
23449;SDS011;11897;45.438;12.128;2023-04-25T13:32:26;3.20;;;0.40;;
23449;SDS011;11897;45.438;12.128;2023-04-25T13:34:52;0.50;;;0.30;;
23449;SDS011;11897;45.438;12.128;2023-04-25T13:37:20;3.50;;;0.40;;
23449;SDS011;11897;45.438;12.128;2023-04-25T13:39:49;2.00;;;0.30;;
23449;SDS011;11897;45.438;12.128;2023-04-25T13:42:16;0.20;;;0.20;;
23449;SDS011;11897;45.438;12.128;2023-04-25T13:44:42;0.30;;;0.20;;
23449;SDS011;11897;45.438;12.128;2023-04-25T13:47:09;2.13;;;0.20;;
23449;SDS011;11897;45.438;12.128;2023-04-25T13:49:37;0.27;;;0.20;;
23449;SDS011;11897;45.438;12.128;2023-04-25T13:52:03;0.40;;;0.30;;
23449;SDS011;11897;45.438;12.128;2023-04-25T13:54:31;0.10;;;0.10;;
23449;SDS011;11897;45.438;12.128;2023-04-25T13:56:58;0.20;;;0.20;;
23449;SDS011;11897;45.438;12.128;2023-04-25T13:59:25;0.60;;;0.40;;
23449;SDS011;11897;45.438;12.128;2023-04-25T14:02:00;0.20;;;0.10;;
23449;SDS011;11897;45.438;12.128;2023-04-25T14:04:27;0.27;;;0.27;;
23449;SDS011;11897;45.438;12.128;2023-04-25T14:06:53;0.13;;;0.13;;
23449;SDS011;11897;45.438;12.128;2023-04-25T14:09:21;1.10;;;0.40;;
23449;SDS011;11897;45.438;12.128;2023-04-25T14:11:52;0.10;;;0.10;;
23449;SDS011;11897;45.438;12.128;2023-04-25T14:14:19;0.10;;;0.10;;
23449;SDS011;11897;45.438;12.128;2023-04-25T14:16:50;0.20;;;0.20;;
23449;SDS011;11897;45.438;12.128;2023-04-25T14:19:19;0.30;;;0.30;;
23449;SDS011;11897;45.438;12.128;2023-04-25T14:21:46;0.20;;;0.20;;
23449;SDS011;11897;45.438;12.128;2023-04-25T14:24:13;0.80;;;0.60;;
23449;SDS011;11897;45.438;12.128;2023-04-25T14:26:40;0.20;;;0.20;;
23449;SDS011;11897;45.438;12.128;2023-04-25T14:29:09;0.20;;;0.10;;
23449;SDS011;11897;45.438;12.128;2023-04-25T14:31:37;0.20;;;0.20;;
23449;SDS011;11897;45.438;12.128;2023-04-25T14:34:04;0.40;;;0.40;;
23449;SDS011;11897;45.438;12.128;2023-04-25T14:36:31;0.43;;;0.30;;
23449;SDS011;11897;45.438;12.128;2023-04-25T14:38:58;0.30;;;0.30;;
23449;SDS011;11897;45.438;12.128;2023-04-25T14:41:25;2.00;;;0.40;;
23449;SDS011;11897;45.438;12.128;2023-04-25T14:43:51;2.37;;;0.20;;
23449;SDS011;11897;45.438;12.128;2023-04-25T14:46:21;1.20;;;0.43;;
23449;SDS011;11897;45.438;12.128;2023-04-25T14:48:48;0.37;;;0.20;;
23449;SDS011;11897;45.438;12.128;2023-04-25T14:51:15;0.73;;;0.40;;
23449;SDS011;11897;45.438;12.128;2023-04-25T14:53:41;0.20;;;0.17;;